createdAt,value
2023-05-10T00:01:54.215Z,7.93
2023-05-10T00:04:55.969Z,7.38
2023-05-10T00:07:58.076Z,7.63
2023-05-10T00:11:00.007Z,7.82
2023-05-10T00:14:01.795Z,7.53
2023-05-10T00:17:04.419Z,7.72
2023-05-10T00:20:07.086Z,7.93
2023-05-10T00:23:09.616Z,7.43
2023-05-10T00:26:11.844Z,7.70
2023-05-10T00:29:20.058Z,7.70
2023-05-10T00:32:21.996Z,8.10
2023-05-10T00:35:24.907Z,7.88
2023-05-10T00:38:26.710Z,8.13
2023-05-10T00:41:29.444Z,7.55
2023-05-10T00:44:38.469Z,7.35
2023-05-10T00:47:41.090Z,7.93
2023-05-10T00:50:43.160Z,7.77
2023-05-10T00:53:47.839Z,7.03
2023-05-10T00:56:50.376Z,7.50
2023-05-10T00:59:53.677Z,7.40
2023-05-10T01:02:55.747Z,6.75
2023-05-10T01:05:59.652Z,6.28
2023-05-10T01:09:01.405Z,7.60
2023-05-10T01:12:09.536Z,6.97
2023-05-10T01:15:12.384Z,6.95
2023-05-10T01:18:14.786Z,7.45
2023-05-10T01:21:41.887Z,7.28
2023-05-10T01:24:58.807Z,7.25
2023-05-10T01:28:18.488Z,7.55
2023-05-10T01:32:08.574Z,7.45
2023-05-10T01:35:40.895Z,7.38
2023-05-10T01:38:52.333Z,8.02
2023-05-10T01:42:07.730Z,8.25
2023-05-10T01:45:30.669Z,9.77
2023-05-10T01:48:33.891Z,9.10
2023-05-10T01:51:46.005Z,10.10
2023-05-10T01:54:57.101Z,10.18
2023-05-10T01:58:09.657Z,10.90
2023-05-10T02:01:11.952Z,10.93
2023-05-10T02:04:19.967Z,10.98
2023-05-10T02:07:23.587Z,11.63
2023-05-10T02:10:25.513Z,10.90
2023-05-10T02:13:30.095Z,11.23
2023-05-10T02:16:33.422Z,11.68
2023-05-10T02:19:37.629Z,11.48
2023-05-10T02:22:41.277Z,9.98
2023-05-10T02:25:45.037Z,12.15
2023-05-10T02:28:48.736Z,12.13
2023-05-10T02:31:53.812Z,12.10
2023-05-10T02:34:57.397Z,13.40
2023-05-10T02:38:00.173Z,14.88
2023-05-10T02:41:05.149Z,15.45
2023-05-10T02:44:09.045Z,16.05
2023-05-10T02:47:11.073Z,15.45
2023-05-10T02:50:13.275Z,17.42
2023-05-10T02:53:22.578Z,17.30
2023-05-10T02:56:34.275Z,15.07
2023-05-10T02:59:40.915Z,15.43
2023-05-10T03:02:43.387Z,15.13
2023-05-10T03:05:45.173Z,15.43
2023-05-10T03:08:47.143Z,15.27
2023-05-10T03:12:02.884Z,13.45
2023-05-10T03:15:29.573Z,14.23
2023-05-10T03:19:13.856Z,14.10
2023-05-10T03:25:23.745Z,14.35
2023-05-10T03:28:27.097Z,15.00
2023-05-10T03:31:28.976Z,17.17
2023-05-10T03:34:32.679Z,18.30
2023-05-10T03:37:39.148Z,20.25
2023-05-10T03:40:41.995Z,21.40
2023-05-10T03:43:50.045Z,21.20
2023-05-10T03:46:51.857Z,20.80
2023-05-10T03:49:53.745Z,19.13
2023-05-10T03:52:55.635Z,18.48
2023-05-10T03:56:03.811Z,19.05
2023-05-10T03:59:08.481Z,18.30
2023-05-10T04:02:10.467Z,17.50
2023-05-10T04:05:12.488Z,16.40
2023-05-10T04:08:20.437Z,17.02
2023-05-10T04:11:23.017Z,16.67
2023-05-10T04:14:24.955Z,16.97
2023-05-10T04:17:27.698Z,16.20
2023-05-10T04:20:29.800Z,15.95
2023-05-10T04:23:31.533Z,15.27
2023-05-10T04:26:34.917Z,14.27
2023-05-10T04:32:39.372Z,15.98
2023-05-10T04:35:41.348Z,14.07
2023-05-10T04:38:43.779Z,14.98
2023-05-10T04:41:52.352Z,14.73
2023-05-10T04:44:54.211Z,14.30
2023-05-10T04:47:56.465Z,15.32
2023-05-10T04:50:58.464Z,14.93
2023-05-10T04:54:06.673Z,14.25
2023-05-10T04:57:09.724Z,14.38
2023-05-10T05:00:12.254Z,13.85
2023-05-10T05:03:20.416Z,13.73
2023-05-10T05:06:22.714Z,14.07
2023-05-10T05:09:24.454Z,13.32
2023-05-10T05:12:26.169Z,13.27
2023-05-10T05:15:28.512Z,14.05
2023-05-10T05:18:31.289Z,14.40
2023-05-10T05:21:33.701Z,12.18
2023-05-10T05:24:39.210Z,12.65
2023-05-10T05:27:42.016Z,11.77
2023-05-10T05:30:43.725Z,12.30
2023-05-10T05:33:46.194Z,11.60
2023-05-10T05:36:48.496Z,10.60
2023-05-10T05:39:51.181Z,10.50
2023-05-10T05:42:56.354Z,10.98
2023-05-10T05:45:59.056Z,10.15
2023-05-10T05:49:01.119Z,9.95
2023-05-10T05:52:09.369Z,8.50
2023-05-10T05:55:11.416Z,8.68
2023-05-10T05:58:14.112Z,8.38
2023-05-10T06:01:19.060Z,8.32
2023-05-10T06:04:20.884Z,8.50
2023-05-10T06:07:22.784Z,7.75
2023-05-10T06:10:28.684Z,5.97
2023-05-10T06:13:33.353Z,6.28
2023-05-10T06:16:35.987Z,5.93
2023-05-10T06:19:37.878Z,7.27
2023-05-10T06:22:41.260Z,6.85
2023-05-10T06:28:45.528Z,6.35
2023-05-10T06:31:47.651Z,8.97
2023-05-10T06:34:52.651Z,10.10
2023-05-10T06:37:54.699Z,9.55
2023-05-10T06:40:56.655Z,8.93
2023-05-10T06:43:58.858Z,10.38
2023-05-10T06:47:00.901Z,10.43
2023-05-10T06:50:02.855Z,10.77
2023-05-10T06:53:06.380Z,10.27
2023-05-10T06:56:08.328Z,11.18
2023-05-10T06:59:11.055Z,12.63
2023-05-10T07:02:13.435Z,13.63
2023-05-10T07:05:17.933Z,16.58
2023-05-10T07:08:19.983Z,16.10
2023-05-10T07:11:22.720Z,17.30
2023-05-10T07:14:24.575Z,17.42
2023-05-10T07:17:26.664Z,16.25
2023-05-10T07:20:28.999Z,15.00
2023-05-10T07:23:31.866Z,13.68
2023-05-10T07:26:33.868Z,11.27
2023-05-10T07:29:36.334Z,5.68
2023-05-10T07:32:38.399Z,3.83
2023-05-10T07:35:42.015Z,3.20
2023-05-10T07:38:43.875Z,3.85
2023-05-10T07:41:45.660Z,3.45
2023-05-10T07:44:48.835Z,3.58
2023-05-10T07:47:51.317Z,3.92
2023-05-10T07:50:53.173Z,3.27
2023-05-10T07:53:59.223Z,3.05
2023-05-10T07:57:01.443Z,3.53
2023-05-10T08:00:04.919Z,3.42
2023-05-10T08:03:08.384Z,3.30
2023-05-10T08:06:11.350Z,3.28
2023-05-10T08:09:13.363Z,3.22
2023-05-10T08:12:16.153Z,3.35
2023-05-10T08:15:18.421Z,3.30
2023-05-10T08:18:22.065Z,2.87
2023-05-10T08:21:24.021Z,3.10
2023-05-10T08:24:25.997Z,2.63
2023-05-10T08:27:27.802Z,2.38
2023-05-10T08:30:29.705Z,2.97
2023-05-10T08:33:31.420Z,2.30
2023-05-10T08:36:33.448Z,1.75
2023-05-10T08:39:36.396Z,2.60
2023-05-10T08:42:43.324Z,2.40
2023-05-10T08:45:55.509Z,2.10
2023-05-10T08:49:00.448Z,1.50
2023-05-10T08:52:06.341Z,1.90
2023-05-10T08:55:09.227Z,2.08
2023-05-10T08:58:11.415Z,1.80
2023-05-10T09:01:20.809Z,2.17
2023-05-10T09:04:22.788Z,1.67
2023-05-10T09:07:24.667Z,1.80
2023-05-10T09:10:30.759Z,1.95
2023-05-10T09:13:37.472Z,1.90
2023-05-10T09:16:42.732Z,2.25
2023-05-10T09:19:46.421Z,2.38
2023-05-10T09:22:54.677Z,2.45
2023-05-10T09:26:22.946Z,2.53
2023-05-10T09:29:24.830Z,2.75
2023-05-10T09:32:48.673Z,3.30
2023-05-10T09:38:58.626Z,3.25
2023-05-10T09:42:10.710Z,3.60
2023-05-10T09:45:14.323Z,4.00
2023-05-10T09:48:16.651Z,4.20
2023-05-10T09:51:52.348Z,3.78
2023-05-10T09:54:55.189Z,4.10
2023-05-10T09:58:01.752Z,4.07
2023-05-10T10:01:03.794Z,4.38
2023-05-10T10:04:08.566Z,4.75
2023-05-10T10:07:17.958Z,5.10
2023-05-10T10:10:37.514Z,5.85
2023-05-10T10:13:39.457Z,5.97
2023-05-10T10:16:48.723Z,6.07
2023-05-10T10:20:18.881Z,6.10
2023-05-10T10:23:21.946Z,6.90
2023-05-10T10:26:24.810Z,5.82
2023-05-10T10:29:40.901Z,6.60
2023-05-10T10:32:48.706Z,6.45
2023-05-10T10:35:54.487Z,6.90
2023-05-10T10:39:01.607Z,6.40
2023-05-10T10:42:05.080Z,6.68
2023-05-10T10:48:23.631Z,6.25
2023-05-10T10:51:29.366Z,5.93
2023-05-10T10:54:35.146Z,6.13
2023-05-10T10:58:05.107Z,6.95
2023-05-10T11:01:18.436Z,6.07
2023-05-10T11:04:25.937Z,6.57
2023-05-10T11:07:27.896Z,6.63
2023-05-10T11:10:29.859Z,6.63
2023-05-10T11:13:51.137Z,7.03
2023-05-10T11:16:53.628Z,6.05
2023-05-10T11:20:15.398Z,5.70
2023-05-10T11:23:19.100Z,5.28
2023-05-10T11:26:27.387Z,5.70
2023-05-10T11:29:29.593Z,5.60
2023-05-10T11:32:32.025Z,5.82
2023-05-10T11:35:43.669Z,5.27
2023-05-10T11:38:49.559Z,5.53
2023-05-10T11:41:51.906Z,4.28
2023-05-10T11:44:54.108Z,4.55
2023-05-10T11:47:57.821Z,5.10
2023-05-10T11:51:04.621Z,4.10
2023-05-10T11:54:11.099Z,4.70
2023-05-10T11:57:13.036Z,4.45
2023-05-10T12:00:16.011Z,4.50
2023-05-10T12:03:19.225Z,4.65
2023-05-10T12:06:28.842Z,4.70
2023-05-10T12:09:42.658Z,4.63
2023-05-10T12:12:49.247Z,4.18
2023-05-10T12:15:53.166Z,3.53
2023-05-10T12:18:58.885Z,4.03
2023-05-10T12:22:01.122Z,4.03
2023-05-10T12:25:04.209Z,3.60
2023-05-10T12:28:13.221Z,4.10
2023-05-10T12:31:15.028Z,3.97
2023-05-10T12:34:34.509Z,4.10
2023-05-10T12:37:39.875Z,3.97
2023-05-10T12:40:41.861Z,4.22
2023-05-10T12:43:44.253Z,4.30
2023-05-10T12:46:46.040Z,4.13
2023-05-10T12:49:47.787Z,3.75
2023-05-10T12:52:49.585Z,3.83
2023-05-10T12:55:51.651Z,4.20
2023-05-10T12:58:54.369Z,4.10
2023-05-10T13:01:56.121Z,3.60
2023-05-10T13:04:57.953Z,3.70
2023-05-10T13:07:59.999Z,3.03
2023-05-10T13:11:02.794Z,3.63
2023-05-10T13:14:05.175Z,3.10
2023-05-10T13:17:07.261Z,3.40
2023-05-10T13:20:10.499Z,3.90
2023-05-10T13:23:13.260Z,4.63
2023-05-10T13:26:15.001Z,3.10
2023-05-10T13:29:19.683Z,2.72
2023-05-10T13:32:21.647Z,2.97
2023-05-10T13:35:23.550Z,3.33
2023-05-10T13:38:25.557Z,3.42
2023-05-10T13:41:27.607Z,3.50
2023-05-10T13:44:29.384Z,3.22
2023-05-10T13:47:31.998Z,2.75
2023-05-10T13:50:33.836Z,2.55
2023-05-10T13:53:36.612Z,1.85
2023-05-10T13:56:38.451Z,1.42
2023-05-10T13:59:49.518Z,1.05
2023-05-10T14:02:52.784Z,0.88
2023-05-10T14:05:54.588Z,1.10
2023-05-10T14:08:56.344Z,0.80
2023-05-10T14:11:59.466Z,0.90
2023-05-10T14:15:07.697Z,2.58
2023-05-10T14:18:09.961Z,1.17
2023-05-10T14:21:11.845Z,0.82
2023-05-10T14:24:13.686Z,0.50
2023-05-10T14:27:16.206Z,0.60
2023-05-10T14:30:26.379Z,0.60
2023-05-10T14:33:28.425Z,0.70
2023-05-10T14:36:31.364Z,0.98
2023-05-10T14:39:34.150Z,0.57
2023-05-10T14:42:37.139Z,0.50
2023-05-10T14:45:39.003Z,0.60
2023-05-10T14:48:43.350Z,0.68
2023-05-10T14:51:46.732Z,0.80
2023-05-10T14:54:48.718Z,0.57
2023-05-10T14:57:51.678Z,0.73
2023-05-10T15:00:58.921Z,0.73
2023-05-10T15:04:06.884Z,1.00
2023-05-10T15:07:09.105Z,1.17
2023-05-10T15:10:12.336Z,1.20
2023-05-10T15:13:19.941Z,1.30
2023-05-10T15:16:32.789Z,1.50
2023-05-10T15:19:36.980Z,1.40
2023-05-10T15:22:39.354Z,1.27
2023-05-10T15:25:42.792Z,1.70
2023-05-10T15:31:50.699Z,2.08
2023-05-10T15:34:52.538Z,1.70
2023-05-10T15:37:54.339Z,1.90
2023-05-10T15:40:59.287Z,2.00
2023-05-10T15:44:02.406Z,1.80
2023-05-10T15:47:04.312Z,1.70
2023-05-10T15:50:07.866Z,1.73
2023-05-10T15:56:14.979Z,1.90
2023-05-10T15:59:16.733Z,1.67
2023-05-10T16:02:19.488Z,1.40
2023-05-10T16:05:22.130Z,1.70
2023-05-10T16:08:24.074Z,1.30
2023-05-10T16:11:26.146Z,1.40
2023-05-10T16:14:29.287Z,1.10
2023-05-10T16:17:31.344Z,0.90
2023-05-10T16:20:38.204Z,1.00
2023-05-10T16:23:40.333Z,1.00
2023-05-10T16:26:42.950Z,1.02
2023-05-10T16:29:44.984Z,1.17
2023-05-10T16:32:46.812Z,1.23
2023-05-10T16:35:48.601Z,1.40
2023-05-10T16:38:51.319Z,1.50
2023-05-10T16:41:53.357Z,2.22
2023-05-10T16:44:56.054Z,2.17
2023-05-10T16:47:58.116Z,1.83
2023-05-10T16:51:01.636Z,2.05
2023-05-10T16:57:06.251Z,1.90
2023-05-10T17:00:08.600Z,1.63
2023-05-10T17:03:15.167Z,1.77
2023-05-10T17:06:17.225Z,1.52
2023-05-10T17:09:20.282Z,1.42
2023-05-10T17:12:24.225Z,1.50
2023-05-10T17:15:26.388Z,1.70
2023-05-10T17:18:28.274Z,2.10
2023-05-10T17:21:30.288Z,1.83
2023-05-10T17:24:33.026Z,2.00
2023-05-10T17:27:35.173Z,2.05
2023-05-10T17:30:37.188Z,2.63
2023-05-10T17:33:39.092Z,2.40
2023-05-10T17:36:40.926Z,2.50
2023-05-10T17:39:43.724Z,3.00
2023-05-10T17:42:45.652Z,3.33
2023-05-10T17:45:49.574Z,3.30
2023-05-10T17:48:51.603Z,2.90
2023-05-10T17:51:54.197Z,3.00
2023-05-10T17:54:56.461Z,4.07
2023-05-10T17:58:00.430Z,4.10
2023-05-10T18:01:02.898Z,4.78
2023-05-10T18:04:10.952Z,4.83
2023-05-10T18:07:12.876Z,5.63
2023-05-10T18:10:14.914Z,4.85
2023-05-10T18:13:24.429Z,5.53
2023-05-10T18:16:29.447Z,5.13
2023-05-10T18:19:31.583Z,5.55
2023-05-10T18:22:33.921Z,6.75
2023-05-10T18:25:36.216Z,8.43
2023-05-10T18:28:38.106Z,8.40
2023-05-10T18:31:40.106Z,8.07
2023-05-10T18:34:42.960Z,6.93
2023-05-10T18:37:44.967Z,7.35
2023-05-10T18:40:47.685Z,7.40
2023-05-10T18:43:49.521Z,7.32
2023-05-10T18:46:59.791Z,5.80
2023-05-10T18:50:04.853Z,5.95
2023-05-10T18:53:06.691Z,5.32
2023-05-10T18:56:08.582Z,5.82
2023-05-10T18:59:11.621Z,6.53
2023-05-10T19:02:13.860Z,7.45
2023-05-10T19:05:20.893Z,8.13
2023-05-10T19:08:23.551Z,6.97
2023-05-10T19:11:25.529Z,7.65
2023-05-10T19:14:28.241Z,7.28
2023-05-10T19:17:37.101Z,6.63
2023-05-10T19:20:40.807Z,7.00
2023-05-10T19:23:45.831Z,7.70
2023-05-10T19:26:48.545Z,7.80
2023-05-10T19:29:52.407Z,9.20
2023-05-10T19:32:54.459Z,9.07
2023-05-10T19:35:56.776Z,8.75
2023-05-10T19:38:58.878Z,8.40
2023-05-10T19:42:00.865Z,8.88
2023-05-10T19:45:03.430Z,8.70
2023-05-10T19:48:08.885Z,9.17
2023-05-10T19:51:10.865Z,11.00
2023-05-10T19:54:12.636Z,9.00
2023-05-10T19:57:14.470Z,9.40
2023-05-10T20:00:18.038Z,9.02
2023-05-10T20:03:19.861Z,9.15
2023-05-10T20:06:21.683Z,9.05
2023-05-10T20:09:23.407Z,8.75
2023-05-10T20:12:25.521Z,8.63
2023-05-10T20:15:29.865Z,7.65
2023-05-10T20:18:32.685Z,8.82
2023-05-10T20:21:34.608Z,9.38
2023-05-10T20:24:36.464Z,9.60
2023-05-10T20:27:38.399Z,9.20
2023-05-10T20:30:40.906Z,7.93
2023-05-10T20:33:42.819Z,7.47
2023-05-10T20:36:44.753Z,6.28
2023-05-10T20:39:48.442Z,5.53
2023-05-10T20:42:54.033Z,6.32
2023-05-10T20:45:56.158Z,7.22
2023-05-10T20:48:59.694Z,7.97
2023-05-10T20:52:01.463Z,8.73
2023-05-10T20:55:03.670Z,9.32
2023-05-10T20:58:06.094Z,10.88
2023-05-10T21:01:08.708Z,9.77
2023-05-10T21:04:10.957Z,10.40
2023-05-10T21:07:13.531Z,10.15
2023-05-10T21:10:16.105Z,10.00
2023-05-10T21:13:19.838Z,9.40
2023-05-10T21:16:22.245Z,9.65
2023-05-10T21:19:24.251Z,9.52
2023-05-10T21:22:26.529Z,9.77
2023-05-10T21:25:29.130Z,9.40
2023-05-10T21:28:31.459Z,9.07
2023-05-10T21:31:38.179Z,9.32
2023-05-10T21:34:39.983Z,9.63
2023-05-10T21:37:42.165Z,9.75
2023-05-10T21:40:44.085Z,9.90
2023-05-10T21:43:46.033Z,9.18
2023-05-10T21:46:48.200Z,9.68
2023-05-10T21:49:51.442Z,8.82
2023-05-10T21:52:53.301Z,9.38
2023-05-10T21:55:57.026Z,10.48
2023-05-10T21:58:58.866Z,8.90
2023-05-10T22:02:02.523Z,9.77
2023-05-10T22:08:09.425Z,9.30
2023-05-10T22:11:11.703Z,8.93
2023-05-10T22:14:14.885Z,9.23
2023-05-10T22:17:16.742Z,9.98
2023-05-10T22:20:19.139Z,9.63
2023-05-10T22:23:21.384Z,9.07
2023-05-10T22:26:23.273Z,9.80
2023-05-10T22:29:25.265Z,10.05
2023-05-10T22:32:28.031Z,11.00
2023-05-10T22:35:30.100Z,9.63
2023-05-10T22:38:33.533Z,10.57
2023-05-10T22:44:37.478Z,10.10
2023-05-10T22:47:39.456Z,10.20
2023-05-10T22:50:43.024Z,10.77
2023-05-10T22:53:45.522Z,10.57
2023-05-10T22:56:47.516Z,10.02
2023-05-10T22:59:49.559Z,10.93
2023-05-10T23:02:51.625Z,11.48
2023-05-10T23:05:53.687Z,11.15
2023-05-10T23:09:00.316Z,11.05
2023-05-10T23:12:02.922Z,11.07
2023-05-10T23:15:08.300Z,11.37
2023-05-10T23:18:10.354Z,10.95
2023-05-10T23:21:12.438Z,10.80
2023-05-10T23:24:14.251Z,11.07
2023-05-10T23:27:16.843Z,11.05
2023-05-10T23:30:19.152Z,11.47
2023-05-10T23:33:22.256Z,11.85
2023-05-10T23:36:24.076Z,12.15
2023-05-10T23:39:30.707Z,11.48
2023-05-10T23:42:33.013Z,11.82
2023-05-10T23:45:35.864Z,12.23
2023-05-10T23:48:37.673Z,12.73
2023-05-10T23:51:39.451Z,12.85
2023-05-10T23:54:42.253Z,13.02
2023-05-10T23:57:45.199Z,13.10
